createdAt,value
2023-01-31T00:06:40.316Z,38.15
2023-01-31T00:14:48.496Z,38.25
2023-01-31T00:22:53.835Z,39.05
2023-01-31T00:31:01.796Z,42.78
2023-01-31T00:39:08.902Z,42.33
2023-01-31T00:47:17.209Z,34.17
2023-01-31T00:55:22.698Z,17.08
2023-01-31T01:03:31.356Z,15.57
2023-01-31T01:11:37.940Z,14.93
2023-01-31T01:19:45.962Z,13.02
2023-01-31T01:27:51.344Z,14.40
2023-01-31T01:36:03.762Z,13.50
2023-01-31T01:44:44.144Z,15.70
2023-01-31T01:52:55.269Z,15.63
2023-01-31T02:01:01.129Z,17.77
2023-01-31T02:09:15.868Z,14.50
2023-01-31T02:17:22.863Z,16.70
2023-01-31T02:25:57.642Z,15.88
2023-01-31T02:34:11.761Z,10.98
2023-01-31T02:42:24.191Z,11.80
2023-01-31T02:50:37.024Z,10.82
2023-01-31T02:58:45.112Z,13.17
2023-01-31T03:07:05.177Z,11.25
2023-01-31T03:15:50.238Z,10.68
2023-01-31T03:23:59.953Z,9.23
2023-01-31T03:32:12.005Z,10.38
2023-01-31T03:40:27.210Z,11.52
2023-01-31T03:48:36.859Z,15.75
2023-01-31T03:56:48.873Z,15.60
2023-01-31T04:04:58.745Z,17.27
2023-01-31T04:13:07.072Z,17.65
2023-01-31T04:21:12.966Z,16.67
2023-01-31T04:29:21.200Z,21.02
2023-01-31T04:37:26.670Z,14.93
2023-01-31T04:45:35.129Z,16.60
2023-01-31T04:53:41.184Z,14.90
2023-01-31T05:01:49.213Z,15.57
2023-01-31T05:09:54.656Z,17.98
2023-01-31T05:18:05.684Z,15.93
2023-01-31T05:26:11.146Z,15.88
2023-01-31T05:34:19.255Z,21.40
2023-01-31T05:42:24.677Z,20.45
2023-01-31T05:50:32.752Z,21.05
2023-01-31T05:58:50.616Z,24.10
2023-01-31T06:06:59.130Z,21.77
2023-01-31T06:15:04.742Z,24.13
2023-01-31T06:23:12.761Z,27.52
2023-01-31T06:31:18.364Z,26.55
2023-01-31T06:39:28.881Z,26.10
2023-01-31T06:47:34.222Z,21.20
2023-01-31T06:55:42.533Z,20.80
2023-01-31T07:03:48.914Z,22.88
2023-01-31T07:11:56.911Z,23.45
2023-01-31T07:20:03.577Z,20.40
2023-01-31T07:28:12.642Z,23.27
2023-01-31T07:36:23.180Z,20.38
2023-01-31T07:44:31.397Z,21.65
2023-01-31T07:52:36.857Z,20.33
2023-01-31T08:00:57.400Z,21.50
2023-01-31T08:09:03.564Z,23.45
2023-01-31T08:17:11.708Z,20.67
2023-01-31T08:25:19.568Z,21.80
2023-01-31T08:33:29.563Z,24.45
2023-01-31T08:41:37.067Z,32.00
2023-01-31T08:49:45.229Z,29.42
2023-01-31T08:57:59.229Z,34.83
2023-01-31T09:06:10.477Z,29.13
2023-01-31T09:14:15.890Z,31.38
2023-01-31T09:22:23.941Z,22.40
2023-01-31T09:30:29.760Z,27.10
2023-01-31T09:38:38.574Z,31.67
2023-01-31T09:46:47.718Z,27.15
2023-01-31T09:54:56.840Z,26.05
2023-01-31T10:03:24.915Z,26.08
2023-01-31T10:11:40.011Z,20.10
2023-01-31T10:19:52.457Z,19.08
2023-01-31T10:28:04.703Z,21.17
2023-01-31T10:36:17.618Z,19.65
2023-01-31T10:44:33.323Z,19.90
2023-01-31T10:53:02.750Z,17.45
2023-01-31T11:01:12.443Z,18.08
2023-01-31T11:09:21.943Z,18.17
2023-01-31T11:17:30.580Z,16.52
2023-01-31T11:25:38.957Z,17.30
2023-01-31T11:33:50.525Z,16.27
2023-01-31T11:41:55.905Z,17.58
2023-01-31T11:50:05.346Z,24.00
2023-01-31T11:58:21.380Z,19.80
2023-01-31T12:06:37.469Z,17.80
2023-01-31T12:14:44.879Z,20.15
2023-01-31T12:22:58.379Z,18.75
2023-01-31T12:31:26.734Z,20.55
2023-01-31T12:39:46.657Z,21.75
2023-01-31T12:48:16.843Z,23.05
2023-01-31T12:56:38.903Z,21.77
2023-01-31T13:04:49.868Z,17.17
2023-01-31T13:13:00.088Z,20.70
2023-01-31T13:21:10.571Z,17.35
2023-01-31T13:29:22.531Z,20.30
2023-01-31T13:37:31.352Z,23.63
2023-01-31T13:45:46.232Z,25.13
2023-01-31T13:53:54.833Z,20.90
2023-01-31T14:02:05.661Z,21.70
2023-01-31T14:10:32.870Z,20.23
2023-01-31T14:18:48.120Z,22.70
2023-01-31T14:26:57.920Z,22.02
2023-01-31T14:35:25.804Z,22.63
2023-01-31T14:43:52.828Z,21.20
2023-01-31T14:52:28.686Z,21.35
2023-01-31T15:00:36.696Z,22.83
2023-01-31T15:08:51.512Z,22.33
2023-01-31T15:17:03.136Z,19.42
2023-01-31T15:25:25.077Z,21.52
2023-01-31T15:33:34.671Z,21.90
2023-01-31T15:41:43.834Z,21.13
2023-01-31T15:49:49.387Z,28.23
2023-01-31T15:58:00.557Z,24.88
2023-01-31T16:06:06.228Z,25.13
2023-01-31T16:14:16.797Z,25.13
2023-01-31T16:22:29.064Z,29.75
2023-01-31T16:30:38.406Z,27.08
2023-01-31T16:38:45.347Z,24.02
2023-01-31T16:46:56.613Z,24.98
2023-01-31T16:55:04.764Z,26.13
2023-01-31T17:03:21.891Z,22.33
2023-01-31T17:11:41.680Z,20.00
2023-01-31T17:19:50.610Z,21.33
2023-01-31T17:27:56.331Z,24.55
2023-01-31T17:36:05.464Z,19.83
2023-01-31T17:44:12.367Z,18.98
2023-01-31T17:52:21.322Z,17.02
2023-01-31T18:00:26.869Z,18.15
2023-01-31T18:08:35.171Z,18.80
2023-01-31T18:16:40.606Z,16.33
2023-01-31T18:24:48.727Z,17.75
2023-01-31T18:32:54.130Z,19.15
2023-01-31T18:41:03.022Z,19.45
2023-01-31T18:49:08.493Z,25.35
2023-01-31T18:57:16.709Z,36.47
2023-01-31T19:05:23.867Z,47.83
2023-01-31T19:13:32.862Z,48.63
2023-01-31T19:21:39.572Z,85.35
2023-01-31T19:29:47.757Z,70.03
2023-01-31T19:37:53.154Z,68.28
2023-01-31T19:46:50.936Z,63.65
2023-01-31T19:54:59.075Z,60.03
2023-01-31T20:03:04.548Z,46.20
2023-01-31T20:11:13.532Z,45.75
2023-01-31T20:19:27.773Z,51.35
2023-01-31T20:27:36.693Z,48.15
2023-01-31T20:35:42.174Z,40.63
2023-01-31T20:43:50.608Z,43.05
2023-01-31T20:51:56.143Z,32.75
2023-01-31T21:00:04.103Z,37.35
2023-01-31T21:08:09.946Z,44.05
2023-01-31T21:16:18.589Z,44.25
2023-01-31T21:24:23.977Z,45.00
2023-01-31T21:32:32.230Z,38.50
2023-01-31T21:40:42.575Z,33.13
2023-01-31T21:48:51.643Z,33.70
2023-01-31T21:56:57.120Z,35.70
2023-01-31T22:05:05.155Z,33.60
2023-01-31T22:13:11.853Z,41.58
2023-01-31T22:21:20.872Z,46.03
2023-01-31T22:29:26.219Z,42.42
2023-01-31T22:37:34.174Z,47.55
2023-01-31T22:45:39.506Z,43.47
2023-01-31T22:53:47.600Z,38.00
2023-01-31T23:01:53.058Z,39.50
2023-01-31T23:10:01.047Z,38.05
2023-01-31T23:18:07.300Z,43.75
2023-01-31T23:26:15.973Z,37.60
2023-01-31T23:34:22.687Z,35.25
2023-01-31T23:42:30.929Z,40.28
2023-01-31T23:50:36.463Z,52.30
2023-01-31T23:58:44.849Z,56.35
